createdAt,value
2018-03-04T00:02:01.268Z,27.40
2018-03-04T00:04:29.089Z,23.17
2018-03-04T00:06:56.789Z,20.42
2018-03-04T00:09:23.852Z,21.40
2018-03-04T00:11:51.827Z,20.73
2018-03-04T00:14:18.778Z,22.98
2018-03-04T00:16:46.526Z,21.37
2018-03-04T00:19:13.481Z,21.60
2018-03-04T00:21:40.430Z,24.30
2018-03-04T00:24:08.413Z,22.50
2018-03-04T00:26:35.352Z,23.35
2018-03-04T00:29:02.264Z,22.42
2018-03-04T00:31:30.225Z,22.77
2018-03-04T00:33:57.143Z,22.58
2018-03-04T00:36:24.077Z,21.00
2018-03-04T00:38:51.769Z,22.20
2018-03-04T00:41:22.582Z,23.02
2018-03-04T00:43:50.369Z,21.42
2018-03-04T00:46:17.314Z,22.30
2018-03-04T00:48:45.796Z,22.15
2018-03-04T00:51:13.652Z,19.95
2018-03-04T00:53:40.584Z,23.00
2018-03-04T00:56:09.275Z,22.33
2018-03-04T00:58:36.200Z,25.02
2018-03-04T01:01:03.892Z,20.95
2018-03-04T01:03:31.728Z,21.75
2018-03-04T01:05:59.428Z,20.02
2018-03-04T01:08:27.261Z,19.60
2018-03-04T01:10:54.996Z,22.73
2018-03-04T01:13:21.925Z,19.90
2018-03-04T01:15:48.861Z,21.98
2018-03-04T01:18:15.804Z,20.70
2018-03-04T01:20:43.680Z,21.92
2018-03-04T01:23:14.276Z,22.08
2018-03-04T01:25:41.196Z,24.15
2018-03-04T01:28:08.111Z,22.83
2018-03-04T01:30:35.056Z,23.52
2018-03-04T01:33:01.977Z,24.05
2018-03-04T01:35:28.908Z,22.85
2018-03-04T01:37:55.829Z,21.95
2018-03-04T01:40:23.521Z,22.77
2018-03-04T01:42:50.436Z,21.40
2018-03-04T01:45:18.132Z,24.80
2018-03-04T01:47:45.040Z,21.83
2018-03-04T01:50:12.771Z,23.58
2018-03-04T01:52:39.684Z,22.23
2018-03-04T01:55:06.616Z,21.67
2018-03-04T01:57:33.542Z,20.65
2018-03-04T02:00:00.484Z,21.17
2018-03-04T02:02:27.398Z,20.77
2018-03-04T02:04:54.332Z,22.02
2018-03-04T02:07:21.249Z,22.55
2018-03-04T02:09:48.178Z,21.67
2018-03-04T02:12:15.093Z,20.02
2018-03-04T02:14:42.784Z,21.80
2018-03-04T02:17:09.719Z,23.10
2018-03-04T02:19:37.561Z,24.02
2018-03-04T02:22:05.262Z,21.85
2018-03-04T02:24:32.176Z,22.85
2018-03-04T02:26:59.869Z,22.55
2018-03-04T02:29:26.781Z,22.87
2018-03-04T02:31:54.481Z,25.77
2018-03-04T02:34:21.405Z,24.27
2018-03-04T02:36:48.337Z,24.85
2018-03-04T02:39:17.007Z,23.87
2018-03-04T02:41:44.707Z,24.55
2018-03-04T02:44:11.624Z,22.85
2018-03-04T02:46:39.317Z,25.10
2018-03-04T02:49:06.232Z,24.20
2018-03-04T02:51:33.166Z,22.48
2018-03-04T02:54:00.856Z,22.85
2018-03-04T02:56:27.787Z,24.27
2018-03-04T02:58:55.460Z,21.02
2018-03-04T03:01:22.389Z,22.90
2018-03-04T03:03:50.070Z,25.55
2018-03-04T03:06:17.003Z,24.63
2018-03-04T03:08:43.912Z,23.00
2018-03-04T03:11:10.848Z,24.58
2018-03-04T03:13:37.757Z,23.12
2018-03-04T03:16:04.693Z,24.90
2018-03-04T03:18:31.605Z,26.50
2018-03-04T03:20:59.305Z,25.58
2018-03-04T03:23:26.221Z,22.25
2018-03-04T03:25:53.934Z,25.33
2018-03-04T03:28:20.850Z,25.83
2018-03-04T03:30:47.786Z,25.33
2018-03-04T03:33:14.705Z,22.95
2018-03-04T03:35:42.409Z,26.00
2018-03-04T03:38:09.321Z,24.33
2018-03-04T03:40:37.016Z,26.25
2018-03-04T03:43:03.941Z,23.67
2018-03-04T03:45:30.853Z,23.67
2018-03-04T03:47:57.775Z,23.73
2018-03-04T03:50:24.706Z,25.48
2018-03-04T03:52:51.611Z,24.30
2018-03-04T03:55:18.547Z,25.42
2018-03-04T03:57:46.236Z,24.48
2018-03-04T04:00:13.168Z,24.37
2018-03-04T04:02:40.076Z,21.73
2018-03-04T04:05:07.016Z,24.75
2018-03-04T04:07:33.935Z,25.30
2018-03-04T04:10:00.875Z,25.40
2018-03-04T04:12:27.787Z,25.37
2018-03-04T04:14:54.723Z,25.30
2018-03-04T04:17:22.397Z,24.73
2018-03-04T04:19:49.329Z,26.87
2018-03-04T04:22:17.010Z,22.20
2018-03-04T04:24:43.954Z,25.05
2018-03-04T04:27:10.872Z,28.20
2018-03-04T04:29:38.561Z,24.67
2018-03-04T04:32:05.508Z,25.67
2018-03-04T04:34:32.428Z,27.90
2018-03-04T04:37:00.132Z,25.90
2018-03-04T04:39:27.044Z,26.52
2018-03-04T04:41:55.745Z,24.65
2018-03-04T04:44:22.687Z,26.15
2018-03-04T04:46:49.619Z,30.52
2018-03-04T04:49:16.533Z,30.12
2018-03-04T04:51:43.468Z,26.62
2018-03-04T04:54:10.384Z,27.13
2018-03-04T04:56:37.309Z,28.23
2018-03-04T04:59:04.229Z,25.95
2018-03-04T05:01:31.921Z,27.40
2018-03-04T05:03:58.833Z,24.12
2018-03-04T05:06:26.532Z,28.58
2018-03-04T05:08:53.446Z,27.92
2018-03-04T05:11:20.384Z,27.65
2018-03-04T05:13:48.063Z,28.20
2018-03-04T05:16:15.001Z,27.77
2018-03-04T05:18:42.860Z,30.37
2018-03-04T05:21:11.562Z,30.67
2018-03-04T05:23:38.473Z,26.17
2018-03-04T05:26:05.417Z,28.48
2018-03-04T05:28:32.341Z,30.48
2018-03-04T05:30:59.277Z,26.25
2018-03-04T05:33:26.956Z,28.20
2018-03-04T05:35:53.925Z,27.50
2018-03-04T05:38:21.611Z,27.95
2018-03-04T05:40:48.529Z,26.15
2018-03-04T05:43:16.237Z,27.02
2018-03-04T05:45:43.164Z,26.25
2018-03-04T05:48:10.076Z,28.17
2018-03-04T05:50:37.768Z,26.20
2018-03-04T05:53:04.713Z,29.23
2018-03-04T05:55:31.640Z,29.03
2018-03-04T05:57:59.323Z,28.05
2018-03-04T06:00:26.271Z,28.98
2018-03-04T06:02:53.188Z,26.30
2018-03-04T06:05:21.902Z,29.67
2018-03-04T06:07:48.820Z,28.23
2018-03-04T06:10:15.752Z,25.08
2018-03-04T06:12:42.668Z,27.20
2018-03-04T06:15:09.598Z,26.55
2018-03-04T06:17:36.510Z,26.27
2018-03-04T06:20:03.441Z,29.17
2018-03-04T06:22:31.120Z,25.20
2018-03-04T06:24:58.988Z,26.48
2018-03-04T06:27:25.900Z,27.60
2018-03-04T06:29:53.812Z,28.85
2018-03-04T06:32:20.732Z,24.87
2018-03-04T06:34:47.656Z,26.08
2018-03-04T06:37:15.336Z,25.73
2018-03-04T06:39:42.277Z,27.65
2018-03-04T06:42:09.952Z,26.67
2018-03-04T06:44:36.889Z,26.35
2018-03-04T06:47:03.800Z,26.00
2018-03-04T06:49:30.728Z,25.05
2018-03-04T06:51:57.724Z,27.27
2018-03-04T06:54:26.570Z,28.10
2018-03-04T06:56:53.488Z,27.55
2018-03-04T06:59:20.416Z,27.65
2018-03-04T07:01:47.333Z,25.23
2018-03-04T07:04:14.267Z,26.25
2018-03-04T07:06:41.198Z,27.77
2018-03-04T07:09:08.935Z,23.50
2018-03-04T07:11:35.856Z,24.15
2018-03-04T07:14:02.783Z,27.73
2018-03-04T07:16:29.704Z,27.75
2018-03-04T07:18:56.638Z,27.48
2018-03-04T07:21:23.552Z,27.35
2018-03-04T07:23:50.485Z,26.62
2018-03-04T07:26:17.412Z,28.38
2018-03-04T07:28:44.333Z,26.73
2018-03-04T07:31:13.984Z,27.70
2018-03-04T07:33:41.817Z,30.42
2018-03-04T07:36:09.524Z,26.60
2018-03-04T07:38:37.468Z,28.38
2018-03-04T07:41:04.406Z,25.25
2018-03-04T07:43:31.323Z,27.23
2018-03-04T07:45:59.155Z,31.73
2018-03-04T07:48:26.051Z,26.10
2018-03-04T07:50:53.741Z,27.90
2018-03-04T07:53:20.642Z,29.20
2018-03-04T07:55:48.327Z,27.92
2018-03-04T07:58:15.238Z,29.33
2018-03-04T08:00:42.170Z,30.17
2018-03-04T08:03:11.097Z,32.22
2018-03-04T08:05:39.796Z,29.00
2018-03-04T08:08:06.712Z,31.35
2018-03-04T08:10:33.662Z,26.15
2018-03-04T08:13:01.357Z,29.33
2018-03-04T08:15:29.240Z,27.17
2018-03-04T08:17:56.157Z,30.20
2018-03-04T08:20:23.079Z,29.77
2018-03-04T08:22:50.797Z,29.58
2018-03-04T08:25:30.745Z,30.30
2018-03-04T08:28:09.660Z,29.67
2018-03-04T08:30:36.598Z,31.83
2018-03-04T08:33:03.552Z,30.75
2018-03-04T08:35:31.171Z,32.15
2018-03-04T08:37:58.173Z,30.30
2018-03-04T08:40:25.093Z,30.85
2018-03-04T08:42:52.061Z,29.73
2018-03-04T08:45:18.970Z,30.70
2018-03-04T08:47:45.964Z,29.80
2018-03-04T08:50:12.896Z,32.13
2018-03-04T08:52:41.908Z,25.90
2018-03-04T08:55:08.833Z,32.17
2018-03-04T08:57:35.865Z,31.40
2018-03-04T09:00:02.780Z,30.77
2018-03-04T09:02:31.697Z,32.42
2018-03-04T09:04:58.689Z,30.85
2018-03-04T09:07:26.454Z,31.50
2018-03-04T09:09:53.369Z,28.38
2018-03-04T09:12:21.076Z,28.80
2018-03-04T09:14:48.066Z,34.10
2018-03-04T09:17:14.964Z,31.40
2018-03-04T09:19:41.934Z,31.05
2018-03-04T09:22:09.839Z,30.98
2018-03-04T09:24:36.780Z,31.58
2018-03-04T09:27:04.627Z,32.80
2018-03-04T09:29:31.549Z,31.70
2018-03-04T09:31:58.481Z,30.75
2018-03-04T09:34:25.404Z,33.00
2018-03-04T09:36:53.406Z,33.15
2018-03-04T09:39:20.328Z,31.52
2018-03-04T09:41:47.289Z,34.33
2018-03-04T09:44:14.260Z,35.25
2018-03-04T09:46:41.950Z,32.88
2018-03-04T09:49:08.869Z,34.28
2018-03-04T09:51:38.484Z,34.13
2018-03-04T09:54:05.554Z,32.15
2018-03-04T09:56:32.555Z,31.60
2018-03-04T09:58:59.510Z,35.97
2018-03-04T10:01:26.456Z,34.47
2018-03-04T10:03:54.141Z,34.38
2018-03-04T10:06:21.146Z,32.40
2018-03-04T10:08:49.601Z,33.67
2018-03-04T10:11:17.933Z,33.60
2018-03-04T10:13:45.856Z,34.80
2018-03-04T10:16:12.787Z,34.08
2018-03-04T10:18:39.704Z,32.70
2018-03-04T10:21:06.753Z,33.00
2018-03-04T10:23:34.631Z,32.97
2018-03-04T10:26:02.333Z,34.70
2018-03-04T10:28:29.254Z,32.80
2018-03-04T10:30:56.226Z,34.45
2018-03-04T10:33:24.825Z,34.92
2018-03-04T10:35:52.812Z,33.03
2018-03-04T10:38:19.740Z,31.45
2018-03-04T10:40:46.677Z,31.52
2018-03-04T10:43:14.358Z,34.45
2018-03-04T10:45:41.396Z,33.58
2018-03-04T10:48:09.189Z,33.13
2018-03-04T10:50:36.735Z,34.58
2018-03-04T10:53:03.653Z,35.28
2018-03-04T10:55:31.367Z,33.83
2018-03-04T10:57:59.271Z,33.28
2018-03-04T11:00:26.968Z,34.33
2018-03-04T11:02:53.937Z,33.22
2018-03-04T11:05:20.901Z,32.95
2018-03-04T11:07:47.857Z,34.33
2018-03-04T11:10:14.801Z,34.70
2018-03-04T11:12:43.741Z,33.30
2018-03-04T11:15:10.671Z,33.78
2018-03-04T11:17:37.600Z,33.42
2018-03-04T11:20:05.309Z,35.75
2018-03-04T11:22:32.230Z,32.97
2018-03-04T11:25:00.088Z,32.20
2018-03-04T11:27:27.909Z,33.17
2018-03-04T11:29:54.854Z,34.03
2018-03-04T11:32:22.753Z,35.35
2018-03-04T11:34:50.438Z,33.70
2018-03-04T11:37:17.389Z,34.65
2018-03-04T11:39:44.451Z,35.17
2018-03-04T11:42:11.446Z,34.50
2018-03-04T11:44:38.384Z,31.10
2018-03-04T11:47:08.042Z,35.47
2018-03-04T11:49:34.967Z,35.67
2018-03-04T11:52:01.912Z,32.13
2018-03-04T11:54:28.861Z,32.95
2018-03-04T11:56:55.800Z,36.97
2018-03-04T11:59:22.720Z,35.03
2018-03-04T12:01:49.649Z,34.78
2018-03-04T12:04:16.560Z,33.78
2018-03-04T12:06:43.514Z,34.90
2018-03-04T12:09:10.420Z,34.33
2018-03-04T12:11:37.362Z,33.28
2018-03-04T12:14:04.321Z,33.80
2018-03-04T12:16:33.185Z,34.53
2018-03-04T12:19:02.784Z,34.15
2018-03-04T12:21:30.535Z,36.20
2018-03-04T12:23:57.600Z,33.42
2018-03-04T12:26:24.514Z,34.50
2018-03-04T12:28:51.428Z,38.25
2018-03-04T12:31:18.382Z,37.08
2018-03-04T12:33:45.301Z,33.70
2018-03-04T12:36:12.242Z,34.25
2018-03-04T12:38:39.425Z,34.00
2018-03-04T12:41:06.366Z,37.33
2018-03-04T12:43:34.044Z,32.78
2018-03-04T12:46:01.006Z,34.70
2018-03-04T12:48:30.532Z,33.60
2018-03-04T12:50:58.246Z,33.70
2018-03-04T12:53:25.162Z,32.15
2018-03-04T12:55:52.118Z,34.38
2018-03-04T12:58:19.051Z,37.40
2018-03-04T13:00:46.789Z,35.58
2018-03-04T13:03:14.701Z,36.97
2018-03-04T13:05:43.412Z,39.85
2018-03-04T13:08:10.344Z,34.65
2018-03-04T13:10:38.226Z,36.58
2018-03-04T13:13:05.158Z,35.05
2018-03-04T13:15:32.135Z,39.03
2018-03-04T13:17:59.079Z,31.55
2018-03-04T13:20:26.025Z,38.13
2018-03-04T13:22:53.040Z,36.47
2018-03-04T13:25:20.918Z,33.78
2018-03-04T13:27:47.968Z,35.53
2018-03-04T13:30:15.103Z,35.38
2018-03-04T13:32:42.956Z,34.03
2018-03-04T13:35:11.645Z,41.95
2018-03-04T13:37:40.528Z,38.58
2018-03-04T13:40:09.230Z,39.03
2018-03-04T13:42:36.161Z,36.40
2018-03-04T13:45:03.841Z,33.70
2018-03-04T13:47:30.771Z,36.05
2018-03-04T13:49:57.689Z,36.95
2018-03-04T13:52:24.616Z,36.33
2018-03-04T13:54:53.229Z,36.90
2018-03-04T13:57:20.937Z,37.67
2018-03-04T13:59:47.848Z,37.15
2018-03-04T14:02:15.544Z,37.67
2018-03-04T14:04:43.522Z,37.08
2018-03-04T14:07:10.455Z,36.70
2018-03-04T14:09:37.380Z,35.72
2018-03-04T14:12:04.308Z,38.63
2018-03-04T14:14:33.033Z,39.00
2018-03-04T14:16:59.969Z,38.83
2018-03-04T14:19:26.907Z,37.53
2018-03-04T14:21:53.853Z,37.67
2018-03-04T14:24:22.716Z,38.33
2018-03-04T14:26:51.425Z,36.30
2018-03-04T14:29:18.344Z,37.75
2018-03-04T14:31:45.285Z,38.47
2018-03-04T14:34:12.972Z,35.97
2018-03-04T14:36:39.929Z,39.35
2018-03-04T14:39:06.840Z,39.38
2018-03-04T14:41:34.737Z,37.53
2018-03-04T14:44:01.714Z,38.35
2018-03-04T14:46:28.651Z,37.63
2018-03-04T14:48:55.566Z,38.08
2018-03-04T14:51:23.432Z,37.97
2018-03-04T14:53:50.427Z,36.55
2018-03-04T14:56:17.362Z,38.60
2018-03-04T14:58:44.271Z,37.13
2018-03-04T15:01:11.345Z,38.55
2018-03-04T15:03:38.311Z,40.92
2018-03-04T15:06:05.326Z,37.50
2018-03-04T15:08:33.053Z,39.03
2018-03-04T15:11:00.900Z,36.47
2018-03-04T15:13:27.817Z,36.50
2018-03-04T15:15:56.722Z,40.10
2018-03-04T15:18:24.404Z,38.05
2018-03-04T15:20:51.345Z,37.53
2018-03-04T15:23:19.240Z,38.75
2018-03-04T15:25:46.933Z,37.35
2018-03-04T15:28:14.549Z,37.22
2018-03-04T15:30:42.296Z,37.13
2018-03-04T15:33:09.212Z,40.40
2018-03-04T15:35:36.147Z,39.60
2018-03-04T15:38:03.141Z,39.97
2018-03-04T15:40:30.096Z,35.38
2018-03-04T15:42:57.775Z,38.20
2018-03-04T15:45:25.486Z,38.15
2018-03-04T15:47:52.417Z,36.05
2018-03-04T15:50:20.363Z,37.72
2018-03-04T15:52:47.296Z,37.95
2018-03-04T15:55:14.266Z,39.83
2018-03-04T15:57:41.245Z,39.38
2018-03-04T16:00:08.232Z,40.15
2018-03-04T16:02:35.136Z,42.53
2018-03-04T16:05:02.090Z,41.92
2018-03-04T16:07:29.020Z,41.05
2018-03-04T16:09:55.966Z,38.90
2018-03-04T16:12:23.650Z,37.50
2018-03-04T16:14:50.585Z,40.92
2018-03-04T16:17:17.550Z,40.08
2018-03-04T16:19:44.476Z,40.45
2018-03-04T16:22:11.405Z,39.33
2018-03-04T16:24:38.349Z,39.05
2018-03-04T16:27:05.274Z,39.22
2018-03-04T16:29:32.268Z,38.00
2018-03-04T16:31:59.196Z,41.50
2018-03-04T16:34:26.156Z,37.40
2018-03-04T16:36:53.895Z,37.47
2018-03-04T16:39:20.860Z,38.00
2018-03-04T16:41:47.825Z,37.92
2018-03-04T16:44:15.552Z,36.28
2018-03-04T16:46:43.469Z,37.50
2018-03-04T16:49:11.185Z,39.90
2018-03-04T16:51:38.100Z,39.40
2018-03-04T16:54:05.063Z,36.58
2018-03-04T16:56:33.010Z,37.10
2018-03-04T16:58:59.954Z,36.10
2018-03-04T17:01:26.859Z,37.90
2018-03-04T17:03:54.581Z,38.97
2018-03-04T17:06:21.544Z,36.83
2018-03-04T17:08:48.485Z,37.75
2018-03-04T17:11:15.413Z,35.05
2018-03-04T17:13:42.342Z,37.60
2018-03-04T17:16:09.328Z,38.08
2018-03-04T17:18:36.226Z,37.58
2018-03-04T17:21:03.137Z,36.80
2018-03-04T17:23:31.056Z,34.72
2018-03-04T17:25:57.985Z,38.20
2018-03-04T17:28:24.957Z,37.30
2018-03-04T17:30:51.887Z,38.20
2018-03-04T17:33:18.815Z,36.97
2018-03-04T17:35:46.701Z,38.00
2018-03-04T17:38:13.637Z,39.38
2018-03-04T17:40:41.514Z,35.88
2018-03-04T17:43:08.516Z,35.55
2018-03-04T17:45:36.203Z,38.05
2018-03-04T17:48:03.156Z,36.67
2018-03-04T17:50:30.209Z,36.92
2018-03-04T17:52:57.152Z,37.00
2018-03-04T17:55:24.069Z,37.13
2018-03-04T17:57:51.761Z,38.45
2018-03-04T18:00:18.684Z,34.60
2018-03-04T18:02:45.612Z,37.03
2018-03-04T18:05:13.289Z,38.63
2018-03-04T18:07:40.225Z,37.35
2018-03-04T18:10:07.132Z,36.78
2018-03-04T18:12:34.089Z,38.33
2018-03-04T18:15:01.001Z,36.05
2018-03-04T18:17:28.705Z,36.47
2018-03-04T18:19:56.448Z,36.92
2018-03-04T18:22:23.396Z,36.65
2018-03-04T18:24:50.325Z,38.33
2018-03-04T18:27:17.322Z,34.95
2018-03-04T18:29:45.006Z,35.75
2018-03-04T18:32:11.978Z,38.33
2018-03-04T18:34:38.933Z,34.53
2018-03-04T18:37:05.824Z,36.38
2018-03-04T18:39:32.744Z,37.15
2018-03-04T18:41:59.687Z,39.00
2018-03-04T18:44:28.138Z,35.95
2018-03-04T18:46:55.113Z,36.83
2018-03-04T18:49:22.804Z,41.72
2018-03-04T18:51:50.674Z,35.45
2018-03-04T18:54:17.581Z,35.63
2018-03-04T18:56:44.520Z,35.70
2018-03-04T18:59:11.439Z,37.25
2018-03-04T19:01:38.370Z,38.55
2018-03-04T19:04:05.284Z,38.53
2018-03-04T19:06:32.214Z,35.75
2018-03-04T19:08:59.898Z,36.85
2018-03-04T19:11:26.839Z,36.72
2018-03-04T19:13:53.766Z,38.15
2018-03-04T19:16:21.484Z,36.20
2018-03-04T19:18:48.412Z,39.80
2018-03-04T19:21:17.301Z,40.05
2018-03-04T19:23:44.243Z,36.15
2018-03-04T19:26:11.193Z,37.65
2018-03-04T19:28:38.113Z,35.83
2018-03-04T19:31:05.028Z,38.28
2018-03-04T19:33:32.924Z,35.50
2018-03-04T19:35:59.836Z,36.72
2018-03-04T19:38:26.775Z,37.97
2018-03-04T19:40:53.685Z,36.75
2018-03-04T19:43:20.619Z,35.83
2018-03-04T19:45:47.534Z,38.72
2018-03-04T19:48:15.230Z,37.53
2018-03-04T19:50:42.148Z,37.78
2018-03-04T19:53:09.843Z,38.72
2018-03-04T19:55:36.802Z,38.78
2018-03-04T19:58:03.724Z,37.95
2018-03-04T20:00:31.552Z,36.88
2018-03-04T20:02:59.256Z,38.55
2018-03-04T20:05:26.202Z,36.60
2018-03-04T20:07:53.146Z,41.25
2018-03-04T20:10:20.057Z,38.17
2018-03-04T20:12:47.760Z,40.53
2018-03-04T20:15:14.673Z,40.83
2018-03-04T20:17:41.612Z,39.45
2018-03-04T20:20:08.532Z,40.03
2018-03-04T20:22:35.463Z,38.67
2018-03-04T20:25:02.393Z,39.83
2018-03-04T20:27:29.346Z,38.80
2018-03-04T20:29:56.261Z,37.20
2018-03-04T20:32:23.209Z,39.65
2018-03-04T20:34:50.124Z,37.97
2018-03-04T20:37:17.080Z,38.00
2018-03-04T20:39:43.997Z,38.70
2018-03-04T20:42:10.926Z,38.90
2018-03-04T20:44:39.553Z,36.10
2018-03-04T20:47:07.299Z,37.45
2018-03-04T20:49:34.216Z,37.55
2018-03-04T20:52:01.191Z,39.00
2018-03-04T20:54:28.115Z,40.75
2018-03-04T20:56:56.949Z,38.90
2018-03-04T20:59:23.871Z,39.25
2018-03-04T21:01:50.806Z,38.80
2018-03-04T21:04:17.732Z,39.65
2018-03-04T21:06:44.661Z,37.83
2018-03-04T21:09:11.576Z,38.97
2018-03-04T21:11:38.504Z,38.80
2018-03-04T21:14:06.397Z,41.75
2018-03-04T21:16:34.091Z,39.88
2018-03-04T21:19:01.925Z,41.88
2018-03-04T21:21:29.621Z,40.15
2018-03-04T21:23:56.524Z,38.60
2018-03-04T21:26:24.208Z,40.17
2018-03-04T21:28:52.043Z,37.65
2018-03-04T21:31:18.965Z,36.47
2018-03-04T21:33:45.859Z,38.97
2018-03-04T21:36:12.792Z,39.45
2018-03-04T21:38:40.669Z,41.22
2018-03-04T21:41:07.603Z,39.70
2018-03-04T21:43:35.293Z,43.28
2018-03-04T21:46:02.224Z,40.45
2018-03-04T21:48:29.151Z,40.70
2018-03-04T21:50:57.743Z,41.03
2018-03-04T21:53:25.620Z,39.15
2018-03-04T21:55:52.562Z,39.83
2018-03-04T21:58:19.513Z,40.53
2018-03-04T22:00:46.422Z,41.88
2018-03-04T22:03:15.060Z,39.58
2018-03-04T22:05:43.804Z,39.70
2018-03-04T22:08:11.507Z,40.90
2018-03-04T22:10:38.458Z,40.00
2018-03-04T22:13:05.389Z,41.17
2018-03-04T22:15:32.329Z,49.08
2018-03-04T22:17:59.266Z,42.53
2018-03-04T22:20:26.181Z,40.08
2018-03-04T22:22:54.096Z,39.33
2018-03-04T22:25:22.039Z,40.60
2018-03-04T22:27:48.977Z,40.33
2018-03-04T22:30:16.669Z,40.25
2018-03-04T22:32:43.607Z,39.00
2018-03-04T22:35:10.574Z,42.17
2018-03-04T22:37:37.530Z,40.88
2018-03-04T22:40:04.454Z,40.25
2018-03-04T22:42:31.403Z,38.30
2018-03-04T22:44:58.336Z,42.03
2018-03-04T22:47:25.260Z,39.17
2018-03-04T22:49:52.190Z,41.53
2018-03-04T22:52:19.894Z,40.80
2018-03-04T22:54:46.859Z,39.75
2018-03-04T22:57:13.795Z,37.25
2018-03-04T22:59:40.736Z,39.10
2018-03-04T23:02:07.663Z,41.30
2018-03-04T23:04:34.564Z,43.35
2018-03-04T23:07:01.480Z,42.08
2018-03-04T23:09:29.392Z,42.78
2018-03-04T23:11:56.320Z,39.10
2018-03-04T23:14:24.203Z,38.10
2018-03-04T23:16:51.908Z,40.83
2018-03-04T23:19:18.832Z,40.90
2018-03-04T23:21:46.717Z,46.13
2018-03-04T23:24:13.634Z,39.65
2018-03-04T23:26:40.573Z,38.60
2018-03-04T23:29:07.493Z,40.40
2018-03-04T23:31:35.384Z,36.17
2018-03-04T23:34:02.301Z,37.65
2018-03-04T23:36:30.009Z,37.35
2018-03-04T23:38:56.920Z,39.45
2018-03-04T23:41:24.624Z,38.28
2018-03-04T23:43:51.532Z,40.10
2018-03-04T23:46:19.236Z,37.95
2018-03-04T23:48:47.153Z,37.22
2018-03-04T23:51:14.987Z,40.53
2018-03-04T23:53:42.747Z,38.85
2018-03-04T23:56:09.661Z,41.13
2018-03-04T23:58:36.565Z,38.50
